METAR Data
IDs: Format: Raw Decoded Include TAF

Data at: 0157 UTC 24 Oct 2019

METAR for:KIKV (Ankeny Rgnl, IA, US)
Text:KIKV 240155Z AUTO 35008G15KT 10SM FEW012 BKN022 OVC028 05/03 A3011 RMK AO2
Temperature: 5.0°C ( 41°F)
Dewpoint: 3.0°C ( 37°F) [RH = 87%]
Pressure (altimeter):30.11 inches Hg (1019.7 mb)
Winds:from the N (350 degrees) at 9 MPH (8 knots; 4.1 m/s) gusting to 17 MPH (15 knots; 7.7 m/s)
Visibility:10 or more sm (16+ km)
Ceiling:2200 feet AGL
Clouds: few clouds at 1200 feet AGL, broken clouds at 2200 feet AGL, overcast cloud deck at 2800 feet AGL
QC Flag:automated observation with no human augmentation